Time;durP1;ratioP1;P1;durP2;ratioP2;P2;SDS_P1;SDS_P2;PMS_P1;PMS_P2;Temp;Humidity;BMP_temperature;BMP_pressure;BME280_temperature;BME280_humidity;BME280_pressure;Samples;Min_cycle;Max_cycle;Signal;HPM_P1;HPM_P2
2023/10/26 00:00:40;;;;;;;;;;;;;;;17.20;60.51;97481.34;10328748;28;913;-72
2023/10/26 00:05:36;;;;;;;;;;;;;;;17.21;60.42;97487.44;10328077;28;960;-72
2023/10/26 00:10:32;;;;;;;;;;;;;;;17.18;60.46;97488.50;10328547;28;985;-72
2023/10/26 00:15:28;;;;;;;;;;;;;;;17.18;60.35;97495.56;10328795;28;869;-72
2023/10/26 00:20:23;;;;;;;;;;;;;;;17.17;60.40;97497.38;10328150;28;783;-72
2023/10/26 00:25:20;;;;;;;;;;;;;;;17.16;60.48;97503.59;10327883;28;810;-72
2023/10/26 00:30:16;;;;;;;;;;;;;;;17.17;60.31;97512.31;10327552;28;1255;-72
2023/10/26 00:35:11;;;;;;;;;;;;;;;17.15;60.48;97512.44;10327389;28;1975;-72
2023/10/26 00:40:07;;;;;;;;;;;;;;;17.14;60.53;97520.47;10327405;28;964;-73
2023/10/26 00:45:03;;;;;;;;;;;;;;;17.13;60.31;97521.41;10327693;28;825;-72
2023/10/26 00:49:59;;;;;;;;;;;;;;;17.12;60.53;97525.84;10326834;28;775;-72
2023/10/26 00:54:55;;;;;;;;;;;;;;;17.10;60.60;97525.09;10326669;28;1956;-72
2023/10/26 00:59:51;;;;;;;;;;;;;;;17.10;60.34;97527.75;10326542;28;1042;-73
2023/10/26 01:04:47;;;;;;;;;;;;;;;17.09;60.45;97541.88;10327022;28;873;-72
2023/10/26 01:09:43;;;;;;;;;;;;;;;17.08;60.44;97550.69;10325572;28;1198;-72
2023/10/26 01:14:39;;;;;;;;;;;;;;;17.07;60.43;97555.13;10326670;28;1966;-72
2023/10/26 01:19:35;;;;;;;;;;;;;;;17.05;60.48;97559.66;10325303;28;849;-72
2023/10/26 01:24:30;;;;;;;;;;;;;;;17.04;60.56;97563.25;10326987;28;905;-72
2023/10/26 01:29:26;;;;;;;;;;;;;;;17.04;60.61;97570.31;10325541;28;1258;-72
2023/10/26 01:34:22;;;;;;;;;;;;;;;17.01;60.63;97563.50;10326417;28;1979;-72
2023/10/26 01:39:18;;;;;;;;;;;;;;;17.01;60.35;97574.03;10325009;28;925;-73
2023/10/26 01:44:14;;;;;;;;;;;;;;;17.02;60.60;97578.31;10325839;28;821;-73
2023/10/26 01:49:10;;;;;;;;;;;;;;;17.00;60.60;97574.13;10325149;28;945;-72
2023/10/26 01:54:06;;;;;;;;;;;;;;;16.99;60.50;97588.25;10325725;28;1910;-72
2023/10/26 01:59:02;;;;;;;;;;;;;;;16.98;60.47;97586.56;10325028;28;1016;-72
2023/10/26 02:03:58;;;;;;;;;;;;;;;16.97;60.50;97579.63;10324975;28;878;-72
2023/10/26 02:08:54;;;;;;;;;;;;;;;16.97;60.51;97587.50;10324328;28;862;-72
2023/10/26 02:13:50;;;;;;;;;;;;;;;16.94;60.62;97601.75;10324798;28;1905;-72
2023/10/26 02:18:46;;;;;;;;;;;;;;;16.96;60.57;97599.00;10324972;28;909;-72
2023/10/26 02:23:42;;;;;;;;;;;;;;;16.94;60.40;97595.63;10324688;28;856;-72
2023/10/26 02:28:37;;;;;;;;;;;;;;;16.92;60.41;97608.06;10324768;28;809;-72
2023/10/26 02:33:33;;;;;;;;;;;;;;;16.92;60.42;97611.53;10323797;28;1910;-72
2023/10/26 02:38:29;;;;;;;;;;;;;;;16.90;60.60;97610.81;10324977;28;841;-72
2023/10/26 02:43:25;;;;;;;;;;;;;;;16.91;60.50;97625.66;10324864;28;983;-72
2023/10/26 02:48:21;;;;;;;;;;;;;;;16.90;60.47;97631.88;10324832;28;1601;-72
2023/10/26 02:53:17;;;;;;;;;;;;;;;16.88;60.44;97633.78;10329073;28;1961;-72
2023/10/26 02:58:13;;;;;;;;;;;;;;;16.88;60.44;97644.31;10331299;28;810;-72
2023/10/26 03:03:08;;;;;;;;;;;;;;;16.88;60.41;97646.09;10330535;28;890;-72
2023/10/26 03:08:04;;;;;;;;;;;;;;;16.88;60.52;97643.47;10331555;28;868;-72
2023/10/26 03:13:00;;;;;;;;;;;;;;;16.86;60.42;97652.28;10331339;28;1969;-72
2023/10/26 03:17:56;;;;;;;;;;;;;;;16.85;60.43;97648.00;10330501;28;842;-73
2023/10/26 03:22:52;;;;;;;;;;;;;;;16.84;60.29;97638.41;10330423;28;781;-72
2023/10/26 03:27:48;;;;;;;;;;;;;;;16.85;60.45;97648.00;10330843;28;904;-73
2023/10/26 03:32:44;;;;;;;;;;;;;;;16.83;60.42;97649.06;10330557;28;1954;-73
2023/10/26 03:37:40;;;;;;;;;;;;;;;16.83;60.46;97656.94;10330372;28;1119;-72
2023/10/26 03:42:36;;;;;;;;;;;;;;;16.82;60.30;97652.63;10330781;28;869;-72
2023/10/26 03:47:32;;;;;;;;;;;;;;;16.81;60.55;97658.84;10329824;28;873;-72
2023/10/26 03:52:28;;;;;;;;;;;;;;;16.82;60.48;97657.88;10329248;28;1902;-72
2023/10/26 03:57:24;;;;;;;;;;;;;;;16.79;60.48;97651.09;10329344;28;855;-73
2023/10/26 04:02:20;;;;;;;;;;;;;;;16.78;60.68;97644.13;10307245;28;1214;-72
2023/10/26 04:07:16;;;;;;;;;;;;;;;16.77;60.50;97652.97;10288653;28;881;-72
2023/10/26 04:12:12;;;;;;;;;;;;;;;16.76;60.47;97647.78;10288367;28;1914;-72
2023/10/26 04:17:07;;;;;;;;;;;;;;;16.74;60.64;97647.03;10287518;28;763;-73
2023/10/26 04:22:05;;;;;;;;;;;;;;;16.83;59.90;97651.69;10286822;28;1055;-73
2023/10/26 04:27:01;;;;;;;;;;;;;;;16.89;59.97;97642.50;10287173;28;1642;-73
2023/10/26 04:31:57;;;;;;;;;;;;;;;16.90;59.82;97646.81;10287269;28;1918;-73
2023/10/26 04:36:53;;;;;;;;;;;;;;;16.95;59.67;97649.94;10287268;28;897;-73
2023/10/26 04:41:48;;;;;;;;;;;;;;;16.97;59.60;97653.31;10287601;28;846;-73
2023/10/26 04:46:44;;;;;;;;;;;;;;;17.05;59.38;97646.50;10286448;28;833;-73
2023/10/26 04:51:40;;;;;;;;;;;;;;;17.12;59.40;97651.34;10286906;28;1871;-73
2023/10/26 04:56:36;;;;;;;;;;;;;;;17.17;59.35;97652.69;10285497;28;858;-72
2023/10/26 05:01:32;;;;;;;;;;;;;;;17.23;59.10;97648.75;10286000;28;881;-73
2023/10/26 05:06:28;;;;;;;;;;;;;;;17.24;59.07;97646.03;10285842;28;976;-72
2023/10/26 05:11:24;;;;;;;;;;;;;;;17.29;59.02;97657.03;10286620;28;1959;-73
2023/10/26 05:16:19;;;;;;;;;;;;;;;17.32;58.87;97653.34;10284749;28;921;-72
2023/10/26 05:21:15;;;;;;;;;;;;;;;17.33;58.99;97655.00;10285243;28;807;-72
2023/10/26 05:26:11;;;;;;;;;;;;;;;17.36;58.96;97651.31;10285679;28;858;-73
2023/10/26 05:31:07;;;;;;;;;;;;;;;17.39;58.91;97649.28;10284695;28;1989;-73
2023/10/26 05:36:04;;;;;;;;;;;;;;;17.39;58.81;97641.38;10284899;28;1057;-73
2023/10/26 05:41:00;;;;;;;;;;;;;;;17.40;58.75;97650.97;10284664;28;872;-73
2023/10/26 05:45:56;;;;;;;;;;;;;;;17.44;58.48;97643.66;10284112;28;877;-73
2023/10/26 05:50:52;;;;;;;;;;;;;;;17.43;58.63;97634.94;10283684;28;1906;-71
2023/10/26 05:55:48;;;;;;;;;;;;;;;17.44;58.60;97641.03;10285053;28;803;-71
2023/10/26 06:00:44;;;;;;;;;;;;;;;17.51;58.74;97640.47;10284378;28;779;-76
2023/10/26 06:05:39;;;;;;;;;;;;;;;17.51;58.97;97643.09;10284251;28;767;-76
2023/10/26 06:10:36;;;;;;;;;;;;;;;17.51;59.07;97642.25;10284132;28;835;-74
2023/10/26 06:15:32;;;;;;;;;;;;;;;17.49;58.92;97644.16;10283859;28;1886;-76
2023/10/26 06:20:28;;;;;;;;;;;;;;;17.48;59.10;97653.03;10284328;28;798;-74
2023/10/26 06:25:25;;;;;;;;;;;;;;;17.45;59.03;97662.00;10286211;28;878;-72
2023/10/26 06:30:21;;;;;;;;;;;;;;;17.55;58.88;97664.75;10292173;28;1140;-68
2023/10/26 06:35:17;;;;;;;;;;;;;;;17.61;59.03;97669.59;10292041;28;1914;-69
2023/10/26 06:40:13;;;;;;;;;;;;;;;17.64;59.00;97677.25;10291280;28;1004;-68
2023/10/26 06:45:09;;;;;;;;;;;;;;;17.67;58.88;97679.66;10291074;28;810;-68
2023/10/26 06:50:05;;;;;;;;;;;;;;;17.68;58.80;97683.13;10290776;28;902;-68
2023/10/26 06:55:01;;;;;;;;;;;;;;;17.70;58.76;97689.13;10291417;28;1955;-68
2023/10/26 06:59:58;;;;;;;;;;;;;;;17.71;58.81;97682.88;10290612;28;1070;-70
2023/10/26 07:04:54;;;;;;;;;;;;;;;17.73;58.79;97688.88;10290375;28;1000;-68
2023/10/26 07:09:50;;;;;;;;;;;;;;;17.76;58.65;97691.28;10290357;28;767;-68
2023/10/26 07:14:45;;;;;;;;;;;;;;;17.75;58.58;97693.09;10289983;28;2036;-68
2023/10/26 07:19:41;;;;;;;;;;;;;;;17.81;58.63;97697.06;10289774;28;768;-69
2023/10/26 07:24:37;;;;;;;;;;;;;;;17.80;58.79;97700.69;10289576;28;904;-69
2023/10/26 07:29:33;;;;;;;;;;;;;;;17.81;58.84;97689.16;10288636;28;1385;-68
2023/10/26 07:34:29;;;;;;;;;;;;;;;17.84;58.68;97688.09;10289349;28;1914;-68
2023/10/26 07:39:25;;;;;;;;;;;;;;;17.84;58.88;97686.34;10288267;28;838;-69
2023/10/26 07:44:21;;;;;;;;;;;;;;;17.86;58.89;97678.28;10289975;28;871;-69
2023/10/26 07:49:17;;;;;;;;;;;;;;;17.87;58.86;97678.19;10288775;28;806;-69
2023/10/26 07:54:12;;;;;;;;;;;;;;;17.87;58.86;97688.72;10288486;28;1902;-68
2023/10/26 07:59:08;;;;;;;;;;;;;;;17.88;58.97;97684.28;10296490;28;1097;-68
2023/10/26 08:04:04;;;;;;;;;;;;;;;17.88;58.79;97684.28;10327672;28;809;-69
2023/10/26 08:09:00;;;;;;;;;;;;;;;17.90;58.69;97677.94;10328284;28;846;-70
2023/10/26 08:13:56;;;;;;;;;;;;;;;17.91;58.86;97676.13;10328334;28;1897;-69
2023/10/26 08:18:52;;;;;;;;;;;;;;;17.88;58.77;97668.47;10327119;28;705;-69
2023/10/26 08:23:48;;;;;;;;;;;;;;;17.92;58.89;97670.75;10327582;28;790;-69
2023/10/26 08:28:44;;;;;;;;;;;;;;;17.95;58.61;97667.88;10327602;28;787;-72
2023/10/26 08:33:40;;;;;;;;;;;;;;;17.88;58.97;97668.47;10312152;28;1981;-69
2023/10/26 08:38:35;;;;;;;;;;;;;;;17.87;58.83;97677.34;10286445;28;894;-69
2023/10/26 08:43:32;;;;;;;;;;;;;;;17.89;58.80;97680.69;10286149;28;858;-69
2023/10/26 08:48:28;;;;;;;;;;;;;;;17.88;58.72;97686.91;10294748;28;1878;-69
2023/10/26 08:53:23;;;;;;;;;;;;;;;17.88;58.78;97689.56;10298472;28;1964;-69
2023/10/26 08:58:19;;;;;;;;;;;;;;;17.86;58.75;97694.09;10285478;28;814;-69
2023/10/26 09:03:15;;;;;;;;;;;;;;;17.86;58.50;97691.47;10285503;28;865;-69
2023/10/26 09:08:11;;;;;;;;;;;;;;;17.88;58.43;97698.31;10285585;28;1000;-68
2023/10/26 09:13:07;;;;;;;;;;;;;;;17.87;58.48;97708.97;10284188;28;1963;-69
2023/10/26 09:18:03;;;;;;;;;;;;;;;17.90;58.35;97724.56;10284620;28;909;-68
2023/10/26 09:23:00;;;;;;;;;;;;;;;17.90;58.41;97730.66;10283880;28;930;-69
2023/10/26 09:27:56;;;;;;;;;;;;;;;17.92;58.39;97727.88;10284490;28;897;-68
2023/10/26 09:32:52;;;;;;;;;;;;;;;17.91;58.36;97724.41;10284867;28;1913;-69
2023/10/26 09:37:50;;;;;;;;;;;;;;;17.98;58.44;97727.44;10284545;28;856;-69
2023/10/26 09:42:46;;;;;;;;;;;;;;;17.98;58.55;97745.91;10284788;28;847;-69
2023/10/26 09:47:42;;;;;;;;;;;;;;;17.99;58.75;97746.72;10284480;28;806;-70
2023/10/26 09:52:38;;;;;;;;;;;;;;;18.00;58.79;97745.75;10283369;28;1961;-69
2023/10/26 09:57:33;;;;;;;;;;;;;;;18.00;58.63;97765.06;10284196;28;842;-69
2023/10/26 10:02:29;;;;;;;;;;;;;;;17.98;58.54;97751.16;10290590;28;822;-69
2023/10/26 10:07:25;;;;;;;;;;;;;;;17.99;58.51;97752.84;10292680;28;885;-71
2023/10/26 10:12:21;;;;;;;;;;;;;;;18.01;58.51;97750.94;10292637;28;1905;-71
2023/10/26 10:17:17;;;;;;;;;;;;;;;18.02;58.35;97755.22;10292663;28;968;-71
2023/10/26 10:22:13;;;;;;;;;;;;;;;18.02;58.46;97760.50;10291574;28;816;-71
2023/10/26 10:27:09;;;;;;;;;;;;;;;18.05;58.36;97757.66;10291538;28;869;-71
2023/10/26 10:32:05;;;;;;;;;;;;;;;18.07;58.25;97750.44;10291260;28;1967;-71
2023/10/26 10:37:01;;;;;;;;;;;;;;;18.07;58.48;97737.25;10316940;28;1102;-71
2023/10/26 10:41:57;;;;;;;;;;;;;;;18.11;58.32;97736.09;10331093;28;870;-70
2023/10/26 10:46:53;;;;;;;;;;;;;;;18.13;58.19;97730.69;10331013;28;787;-72
2023/10/26 10:51:49;;;;;;;;;;;;;;;18.14;58.07;97732.38;10331087;28;2037;-71
2023/10/26 10:56:46;;;;;;;;;;;;;;;18.20;58.31;97728.44;10330577;28;877;-71
2023/10/26 11:01:42;;;;;;;;;;;;;;;18.40;57.91;97725.09;10330280;28;893;-70
2023/10/26 11:06:38;;;;;;;;;;;;;;;18.38;58.21;97727.00;10330373;28;851;-71
2023/10/26 11:11:35;;;;;;;;;;;;;;;18.32;58.45;97712.50;10329418;28;1901;-70
2023/10/26 11:16:31;;;;;;;;;;;;;;;18.32;58.25;97717.78;10330078;28;862;-70
2023/10/26 11:21:26;;;;;;;;;;;;;;;18.33;58.40;97727.34;10330364;28;857;-70
2023/10/26 11:26:22;;;;;;;;;;;;;;;18.33;58.42;97718.59;10330333;28;779;-70
2023/10/26 11:31:18;;;;;;;;;;;;;;;18.25;58.85;97715.72;10329863;28;1989;-70
2023/10/26 11:36:14;;;;;;;;;;;;;;;18.20;58.97;97702.88;10329457;28;977;-70
2023/10/26 11:41:10;;;;;;;;;;;;;;;18.22;58.68;97694.88;10329118;28;881;-70
2023/10/26 11:46:07;;;;;;;;;;;;;;;18.20;58.35;97697.63;10329079;28;846;-72
2023/10/26 11:51:05;;;;;;;;;;;;;;;18.26;58.52;97691.03;10330051;28;1894;-72
2023/10/26 11:56:01;;;;;;;;;;;;;;;18.30;58.29;97700.38;10330000;28;774;-72
2023/10/26 12:00:57;;;;;;;;;;;;;;;18.31;58.34;97683.59;10329848;28;933;-73
2023/10/26 12:05:52;;;;;;;;;;;;;;;18.34;58.25;97678.09;10328188;28;858;-73
2023/10/26 12:10:48;;;;;;;;;;;;;;;18.32;58.28;97682.66;10328673;28;775;-72
2023/10/26 12:15:44;;;;;;;;;;;;;;;18.30;58.24;97677.47;10328329;28;1886;-72
2023/10/26 12:20:40;;;;;;;;;;;;;;;18.32;58.48;97672.94;10328727;28;887;-72
2023/10/26 12:25:37;;;;;;;;;;;;;;;18.30;58.30;97681.94;10327584;28;969;-72
2023/10/26 12:30:32;;;;;;;;;;;;;;;18.33;58.28;97689.59;10324693;28;1112;-72
2023/10/26 12:35:28;;;;;;;;;;;;;;;18.32;58.24;97682.66;10327359;28;1969;-72
2023/10/26 12:40:24;;;;;;;;;;;;;;;18.34;58.04;97688.66;10327149;28;858;-72
2023/10/26 12:45:21;;;;;;;;;;;;;;;18.33;58.04;97693.06;10327821;28;881;-72
2023/10/26 12:50:17;;;;;;;;;;;;;;;18.33;58.03;97686.97;10327375;28;850;-72
2023/10/26 12:55:12;;;;;;;;;;;;;;;18.36;58.11;97686.72;10326869;28;1922;-74
2023/10/26 13:00:09;;;;;;;;;;;;;;;18.33;58.15;97686.97;10326160;28;767;-70
2023/10/26 13:05:05;;;;;;;;;;;;;;;18.31;58.21;97676.53;10326303;28;857;-70
2023/10/26 13:10:01;;;;;;;;;;;;;;;18.33;58.22;97673.78;10325540;28;791;-70
2023/10/26 13:14:57;;;;;;;;;;;;;;;18.34;58.07;97662.28;10326164;28;1918;-70
2023/10/26 13:19:53;;;;;;;;;;;;;;;18.33;58.12;97650.03;10325715;28;768;-70
2023/10/26 13:24:49;;;;;;;;;;;;;;;18.30;58.33;97640.56;10325347;28;969;-69
2023/10/26 13:29:44;;;;;;;;;;;;;;;18.30;58.56;97639.72;10324701;28;1304;-70
2023/10/26 13:34:40;;;;;;;;;;;;;;;18.29;58.55;97638.06;10325186;28;1922;-70
2023/10/26 13:39:38;;;;;;;;;;;;;;;18.31;58.23;97630.84;10324824;28;829;-70
2023/10/26 13:44:34;;;;;;;;;;;;;;;18.32;58.56;97617.56;10325622;28;802;-70
2023/10/26 13:49:30;;;;;;;;;;;;;;;18.28;58.56;97613.47;10324638;28;838;-70
2023/10/26 13:54:26;;;;;;;;;;;;;;;18.22;58.62;97621.88;10324658;28;1944;-70
2023/10/26 13:59:22;;;;;;;;;;;;;;;18.22;58.68;97621.03;10323862;28;1136;-69
2023/10/26 14:04:18;;;;;;;;;;;;;;;18.17;58.72;97621.41;10324466;28;798;-69
2023/10/26 14:09:14;;;;;;;;;;;;;;;18.17;58.83;97634.59;10323820;28;929;-69
2023/10/26 14:14:12;;;;;;;;;;;;;;;18.18;58.54;97625.69;10324201;28;1961;-70
2023/10/26 14:19:08;;;;;;;;;;;;;;;18.18;58.59;97636.25;10324209;28;882;-69
2023/10/26 14:24:06;;;;;;;;;;;;;;;18.15;58.70;97626.78;10324037;28;890;-70
2023/10/26 14:29:02;;;;;;;;;;;;;;;18.40;57.93;97624.84;10323089;28;1208;-70
2023/10/26 14:33:57;;;;;;;;;;;;;;;18.78;56.86;97621.78;10322359;28;1969;-70
2023/10/26 14:38:53;;;;;;;;;;;;;;;19.02;56.11;97610.19;10323281;28;889;-73
2023/10/26 14:43:49;;;;;;;;;;;;;;;18.93;56.54;97610.97;10323700;28;811;-73
2023/10/26 14:48:46;;;;;;;;;;;;;;;18.74;57.11;97611.59;10328645;28;1245;-73
2023/10/26 14:53:42;;;;;;;;;;;;;;;18.85;56.79;97601.03;10328924;28;1890;-74
2023/10/26 14:58:38;;;;;;;;;;;;;;;18.63;57.53;97601.91;10290964;28;811;-75
2023/10/26 15:03:34;;;;;;;;;;;;;;;18.48;57.77;97590.78;10290464;28;763;-76
2023/10/26 15:08:31;;;;;;;;;;;;;;;18.45;57.59;97603.41;10290141;28;807;-72
2023/10/26 15:13:27;;;;;;;;;;;;;;;18.50;57.42;97602.06;10289613;28;1894;-74
2023/10/26 15:18:23;;;;;;;;;;;;;;;18.53;57.47;97583.34;10290134;28;847;-74
2023/10/26 15:23:19;;;;;;;;;;;;;;;18.53;57.39;97579.88;10289388;28;1040;-75
2023/10/26 15:28:15;;;;;;;;;;;;;;;18.48;57.63;97576.75;10290098;28;848;-75
2023/10/26 15:33:11;;;;;;;;;;;;;;;18.51;57.37;97579.16;10288536;28;2003;-75
2023/10/26 15:38:08;;;;;;;;;;;;;;;18.50;57.64;97575.69;10289080;28;1269;-75
2023/10/26 15:43:04;;;;;;;;;;;;;;;18.49;57.93;97583.72;10287629;28;929;-75
2023/10/26 15:48:00;;;;;;;;;;;;;;;18.49;58.14;97581.91;10288917;28;846;-75
2023/10/26 15:52:57;;;;;;;;;;;;;;;18.49;58.47;97576.63;10288057;28;1937;-75
2023/10/26 15:57:53;;;;;;;;;;;;;;;18.47;58.49;97575.94;10287908;28;866;-75
2023/10/26 16:02:49;;;;;;;;;;;;;;;18.45;58.63;97575.22;10287729;28;772;-75
2023/10/26 16:07:45;;;;;;;;;;;;;;;18.46;58.75;97582.16;10287326;28;941;-75
2023/10/26 16:12:40;;;;;;;;;;;;;;;18.48;58.69;97580.25;10287518;28;1890;-75
2023/10/26 16:17:37;;;;;;;;;;;;;;;18.46;58.72;97581.31;10287589;28;830;-75
2023/10/26 16:22:33;;;;;;;;;;;;;;;18.42;58.76;97578.09;10287134;28;775;-75
2023/10/26 16:27:28;;;;;;;;;;;;;;;18.38;58.85;97574.03;10287727;28;858;-76
2023/10/26 16:32:26;;;;;;;;;;;;;;;18.33;58.98;97576.19;10305597;28;1975;-76
2023/10/26 16:37:22;;;;;;;;;;;;;;;18.28;58.87;97581.81;10327974;28;843;-75
2023/10/26 16:42:18;;;;;;;;;;;;;;;18.25;58.96;97584.72;10326954;28;881;-76
2023/10/26 16:47:14;;;;;;;;;;;;;;;18.26;58.92;97594.31;10326921;28;806;-75
2023/10/26 16:52:10;;;;;;;;;;;;;;;18.25;59.01;97610.25;10326174;28;1973;-76
2023/10/26 16:57:07;;;;;;;;;;;;;;;18.25;59.06;97610.25;10326729;28;861;-76
2023/10/26 17:02:03;;;;;;;;;;;;;;;18.26;59.16;97607.50;10325346;28;1061;-76
2023/10/26 17:06:59;;;;;;;;;;;;;;;18.25;59.02;97608.44;10326786;28;767;-77
2023/10/26 17:11:55;;;;;;;;;;;;;;;18.26;59.20;97602.22;10324593;28;1886;-76
2023/10/26 17:16:51;;;;;;;;;;;;;;;18.30;58.99;97608.91;10325399;28;896;-76
2023/10/26 17:21:46;;;;;;;;;;;;;;;18.32;58.84;97612.28;10326224;28;845;-76
2023/10/26 17:26:42;;;;;;;;;;;;;;;18.32;59.05;97608.81;10325734;28;930;-75
2023/10/26 17:31:38;;;;;;;;;;;;;;;18.32;58.96;97604.38;10325193;28;1906;-75
2023/10/26 17:36:34;;;;;;;;;;;;;;;18.36;58.98;97605.78;10325564;28;846;-79
2023/10/26 17:41:30;;;;;;;;;;;;;;;18.31;59.07;97593.94;10325319;28;831;-86
2023/10/26 17:46:26;;;;;;;;;;;;;;;18.26;59.31;97594.31;10325804;28;857;-88
2023/10/26 17:51:23;;;;;;;;;;;;;;;18.28;59.02;97588.91;10324889;28;1902;-87
2023/10/26 17:56:19;;;;;;;;;;;;;;;18.25;59.11;97584.72;10325574;28;864;-80
2023/10/26 18:01:16;;;;;;;;;;;;;;;18.22;59.14;97584.97;10324654;28;833;-82
2023/10/26 18:06:12;;;;;;;;;;;;;;;18.26;59.09;97578.50;10324833;28;916;-88
2023/10/26 18:11:08;;;;;;;;;;;;;;;18.27;58.93;97574.06;10325465;28;854;-87
2023/10/26 18:16:07;;;;;;;;;;;;;;;18.24;58.94;97567.22;10324249;28;1963;-86
2023/10/26 18:21:03;;;;;;;;;;;;;;;18.24;58.83;97585.69;10327136;28;874;-86
2023/10/26 18:25:59;;;;;;;;;;;;;;;18.26;58.96;97583.78;10332731;28;965;-82
2023/10/26 18:30:55;;;;;;;;;;;;;;;18.27;59.01;97568.78;10332497;28;1373;-83
2023/10/26 18:35:50;;;;;;;;;;;;;;;18.26;58.86;97569.72;10332250;28;1980;-82
2023/10/26 18:40:46;;;;;;;;;;;;;;;18.26;58.89;97572.34;10330519;28;1215;-82
2023/10/26 18:45:42;;;;;;;;;;;;;;;18.28;58.66;97579.19;10331556;28;830;-83
2023/10/26 18:50:38;;;;;;;;;;;;;;;18.30;58.73;97579.06;10331913;28;830;-80
2023/10/26 18:55:34;;;;;;;;;;;;;;;18.26;58.94;97565.31;10331444;28;1953;-82
2023/10/26 19:00:30;;;;;;;;;;;;;;;18.27;58.81;97563.50;10331538;28;1040;-82
2023/10/26 19:05:26;;;;;;;;;;;;;;;18.29;58.81;97558.94;10331415;28;838;-81
2023/10/26 19:10:21;;;;;;;;;;;;;;;18.29;58.85;97556.31;10330749;28;975;-81
2023/10/26 19:15:17;;;;;;;;;;;;;;;18.27;58.82;97550.31;10330755;28;1957;-82
2023/10/26 19:20:20;;;;;;;;;;;;;;;18.26;58.90;97559.16;10330233;28;913;-84
2023/10/26 19:25:16;;;;;;;;;;;;;;;18.30;58.63;97556.16;10331173;28;877;-84
2023/10/26 19:30:12;;;;;;;;;;;;;;;18.30;58.65;97558.81;10330822;28;1140;-84
2023/10/26 19:35:08;;;;;;;;;;;;;;;18.29;58.70;97566.88;10329830;28;1918;-83
2023/10/26 19:40:05;;;;;;;;;;;;;;;18.27;58.76;97576.69;10330038;28;829;-84
2023/10/26 19:45:01;;;;;;;;;;;;;;;18.24;58.82;97561.13;10329837;28;886;-84
2023/10/26 19:49:57;;;;;;;;;;;;;;;18.21;58.81;97563.97;10329482;28;932;-84
2023/10/26 19:54:52;;;;;;;;;;;;;;;18.18;59.11;97570.31;10329325;28;1953;-84
2023/10/26 19:59:48;;;;;;;;;;;;;;;18.15;58.88;97571.41;10328584;28;1019;-84
2023/10/26 20:04:44;;;;;;;;;;;;;;;18.11;59.04;97548.91;10328436;28;885;-86
2023/10/26 20:09:40;;;;;;;;;;;;;;;18.09;58.94;97548.19;10328627;28;780;-84
2023/10/26 20:14:36;;;;;;;;;;;;;;;18.07;59.14;97539.53;10328472;28;1953;-84
2023/10/26 20:19:32;;;;;;;;;;;;;;;18.04;59.11;97545.06;10328514;28;871;-83
2023/10/26 20:24:28;;;;;;;;;;;;;;;18.01;59.17;97547.13;10328271;28;758;-79
2023/10/26 20:29:24;;;;;;;;;;;;;;;17.95;59.26;97557.19;10328793;28;1359;-79
2023/10/26 20:34:20;;;;;;;;;;;;;;;17.89;59.44;97564.72;10327864;28;1905;-75
2023/10/26 20:39:16;;;;;;;;;;;;;;;17.88;59.44;97570.97;10327593;28;747;-79
2023/10/26 20:44:11;;;;;;;;;;;;;;;17.84;59.41;97561.59;10326688;28;1384;-75
2023/10/26 20:49:08;;;;;;;;;;;;;;;17.81;59.50;97552.16;10327251;28;990;-78
2023/10/26 20:54:05;;;;;;;;;;;;;;;17.79;59.49;97553.19;10327038;28;1893;-78
2023/10/26 20:59:01;;;;;;;;;;;;;;;17.80;59.34;97544.38;10326849;28;870;-78
2023/10/26 21:03:57;;;;;;;;;;;;;;;17.81;59.19;97532.88;10327086;28;818;-79
2023/10/26 21:08:53;;;;;;;;;;;;;;;17.75;59.42;97539.44;10326914;28;814;-80
2023/10/26 21:13:49;;;;;;;;;;;;;;;17.75;59.35;97532.34;10326188;28;1894;-78
2023/10/26 21:18:45;;;;;;;;;;;;;;;17.73;59.30;97534.25;10326834;28;810;-79
2023/10/26 21:23:40;;;;;;;;;;;;;;;17.74;59.37;97517.53;10326107;28;818;-79
2023/10/26 21:28:38;;;;;;;;;;;;;;;17.77;59.27;97513.81;10325952;28;833;-80
2023/10/26 21:33:34;;;;;;;;;;;;;;;17.74;59.13;97514.88;10324949;28;1993;-79
2023/10/26 21:38:30;;;;;;;;;;;;;;;17.63;59.57;97511.41;10326551;28;771;-79
2023/10/26 21:43:26;;;;;;;;;;;;;;;17.59;59.73;97509.97;10325550;28;858;-80
2023/10/26 21:48:22;;;;;;;;;;;;;;;17.57;59.53;97511.88;10326347;28;857;-79
2023/10/26 21:53:18;;;;;;;;;;;;;;;17.53;59.80;97501.59;10325262;28;1971;-79
2023/10/26 21:58:14;;;;;;;;;;;;;;;17.52;59.91;97485.91;10324761;28;890;-79
2023/10/26 22:03:10;;;;;;;;;;;;;;;17.51;59.75;97481.59;10325201;28;855;-79
2023/10/26 22:08:06;;;;;;;;;;;;;;;17.49;59.70;97476.44;10325088;28;759;-79
2023/10/26 22:13:02;;;;;;;;;;;;;;;17.47;59.83;97483.63;10324700;28;1905;-79
2023/10/26 22:17:58;;;;;;;;;;;;;;;17.44;60.12;97472.50;10324255;28;1195;-79
2023/10/26 22:22:54;;;;;;;;;;;;;;;17.43;60.03;97473.47;10324223;28;915;-79
2023/10/26 22:27:49;;;;;;;;;;;;;;;17.41;59.87;97470.94;10324744;28;917;-78
2023/10/26 22:32:45;;;;;;;;;;;;;;;17.39;59.91;97479.91;10325794;28;1972;-79
2023/10/26 22:37:41;;;;;;;;;;;;;;;17.39;60.04;97477.28;10324499;28;901;-78
2023/10/26 22:42:37;;;;;;;;;;;;;;;17.36;59.93;97478.34;10324337;28;901;-78
2023/10/26 22:47:33;;;;;;;;;;;;;;;17.36;59.98;97469.63;10325000;28;764;-78
2023/10/26 22:52:29;;;;;;;;;;;;;;;17.34;60.10;97467.09;10325278;28;1894;-78
2023/10/26 22:57:25;;;;;;;;;;;;;;;17.31;60.19;97457.63;10324149;28;849;-78
2023/10/26 23:02:21;;;;;;;;;;;;;;;17.31;60.00;97462.91;10324553;28;842;-78
2023/10/26 23:07:17;;;;;;;;;;;;;;;17.30;60.15;97461.25;10324534;28;925;-79
2023/10/26 23:12:13;;;;;;;;;;;;;;;17.27;60.16;97445.69;10331240;28;1902;-78
2023/10/26 23:17:09;;;;;;;;;;;;;;;17.26;60.03;97446.63;10330907;28;866;-78
2023/10/26 23:22:08;;;;;;;;;;;;;;;17.26;60.11;97444.00;10330189;28;988;-78
2023/10/26 23:27:04;;;;;;;;;;;;;;;17.23;60.15;97433.69;10330603;28;853;-78
2023/10/26 23:32:00;;;;;;;;;;;;;;;17.23;60.23;97420.53;10331320;28;1922;-78
2023/10/26 23:36:56;;;;;;;;;;;;;;;17.22;60.15;97415.41;10329815;28;925;-78
2023/10/26 23:41:52;;;;;;;;;;;;;;;17.21;60.07;97409.31;10329859;28;976;-78
2023/10/26 23:46:48;;;;;;;;;;;;;;;17.21;60.16;97408.44;10330570;28;837;-78
2023/10/26 23:51:44;;;;;;;;;;;;;;;17.19;60.12;97405.97;10329547;28;1956;-78
2023/10/26 23:56:40;;;;;;;;;;;;;;;17.19;60.29;97405.13;10330277;28;847;-78
